Time;durP1;ratioP1;P1;durP2;ratioP2;P2;SDS_P1;SDS_P2;PMS_P1;PMS_P2;Temp;Humidity;BMP_temperature;BMP_pressure;BME280_temperature;BME280_humidity;BME280_pressure;Samples;Min_cycle;Max_cycle;Signal;HPM_P1;HPM_P2
2022/10/01 00:01:58;;;;;;;7.75;6.95;;;13.30;99.90;;;;;;5004448;28;20045;-80
2022/10/01 00:04:26;;;;;;;10.40;6.95;;;13.20;99.90;;;;;;5022264;28;20037;-81
2022/10/01 00:06:51;;;;;;;10.35;7.38;;;13.20;99.90;;;;;;5004964;28;20046;-80
2022/10/01 00:09:17;;;;;;;10.13;7.60;;;13.20;99.90;;;;;;5023886;28;20083;-80
2022/10/01 00:11:43;;;;;;;8.57;7.20;;;13.10;99.90;;;;;;5026150;28;20041;-81
2022/10/01 00:14:09;;;;;;;7.95;7.00;;;13.10;99.90;;;;;;5025189;28;20041;-80
2022/10/01 00:16:34;;;;;;;8.35;7.10;;;12.90;99.90;;;;;;5005631;28;20377;-81
2022/10/01 00:19:00;;;;;;;8.05;6.70;;;13.00;99.90;;;;;;5019885;28;20076;-81
2022/10/01 00:21:28;;;;;;;9.20;7.38;;;12.90;99.90;;;;;;5006244;28;20128;-80
2022/10/01 00:24:00;;;;;;;8.80;7.72;;;12.90;99.90;;;;;;5023357;28;20049;-80
2022/10/01 00:26:28;;;;;;;10.48;7.90;;;12.90;99.90;;;;;;5018762;28;20128;-80
2022/10/01 00:28:57;;;;;;;8.73;7.82;;;12.80;99.90;;;;;;5021494;28;20563;-80
2022/10/01 00:31:24;;;;;;;9.80;7.82;;;12.70;99.90;;;;;;5022342;28;20038;-80
2022/10/01 00:33:57;;;;;;;9.43;8.00;;;12.70;99.90;;;;;;5015171;28;20092;-81
2022/10/01 00:36:25;;;;;;;8.98;8.07;;;12.70;99.90;;;;;;5016670;28;20635;-79
2022/10/01 00:38:50;;;;;;;11.23;8.77;;;12.60;99.90;;;;;;5022976;28;20085;-79
2022/10/01 00:41:17;;;;;;;9.50;8.50;;;12.60;99.90;;;;;;5026661;28;20554;-81
2022/10/01 00:43:46;;;;;;;9.57;8.23;;;12.60;99.90;;;;;;5022229;28;20104;-80
2022/10/01 00:46:20;;;;;;;8.35;7.53;;;12.60;99.90;;;;;;5020779;28;20049;-81
2022/10/01 00:48:58;;;;;;;10.20;8.63;;;12.60;99.90;;;;;;5025640;28;20041;-81
2022/10/01 00:51:28;;;;;;;9.95;8.80;;;12.50;99.90;;;;;;5007293;28;20087;-80
2022/10/01 00:54:05;;;;;;;9.98;8.90;;;12.50;99.90;;;;;;5021348;28;20046;-80
2022/10/01 00:56:31;;;;;;;9.38;8.48;;;12.50;99.90;;;;;;5022088;28;20539;-81
2022/10/01 00:58:57;;;;;;;9.53;8.43;;;12.40;99.90;;;;;;5025861;28;20045;-81
2022/10/01 01:01:23;;;;;;;11.07;9.73;;;12.40;99.90;;;;;;5011550;28;20642;-80
2022/10/01 01:03:50;;;;;;;10.13;9.07;;;12.40;99.90;;;;;;5027162;28;20038;-81
2022/10/01 01:06:15;;;;;;;10.43;9.27;;;12.40;99.90;;;;;;5025786;28;20382;-81
2022/10/01 01:08:42;;;;;;;11.27;9.48;;;12.30;99.90;;;;;;5007484;28;20048;-80
2022/10/01 01:11:20;;;;;;;10.18;8.63;;;12.30;99.90;;;;;;5010051;28;20542;-80
2022/10/01 01:13:59;;;;;;;11.07;8.93;;;12.30;99.90;;;;;;5021307;28;20382;-81
2022/10/01 01:16:31;;;;;;;10.15;9.05;;;12.30;99.90;;;;;;5010970;28;20045;-80
2022/10/01 01:19:32;;;;;;;10.15;9.25;;;12.30;99.90;;;;;;5028606;28;20046;-80
2022/10/01 01:22:03;;;;;;;10.02;9.02;;;12.30;99.90;;;;;;4999038;28;20048;-80
2022/10/01 01:24:52;;;;;;;10.30;9.18;;;12.30;99.90;;;;;;5026214;28;20173;-81
2022/10/01 01:27:41;;;;;;;9.38;8.30;;;12.30;99.90;;;;;;5010435;28;20396;-81
2022/10/01 01:30:10;;;;;;;11.05;9.80;;;12.30;99.90;;;;;;5021956;28;20049;-81
2022/10/01 01:32:45;;;;;;;10.73;9.63;;;12.20;99.90;;;;;;5002213;28;20482;-80
2022/10/01 01:35:17;;;;;;;10.02;8.95;;;12.20;99.90;;;;;;5019839;28;20029;-80
2022/10/01 01:37:50;;;;;;;11.15;9.60;;;12.20;99.90;;;;;;5027611;28;20053;-81
2022/10/01 01:40:18;;;;;;;12.45;9.27;;;12.20;99.90;;;;;;5011704;28;20489;-81
2022/10/01 01:42:47;;;;;;;10.75;9.52;;;12.10;99.90;;;;;;5025294;28;20095;-80
2022/10/01 01:45:19;;;;;;;11.23;9.95;;;12.10;99.90;;;;;;5005768;28;20057;-81
2022/10/01 01:47:45;;;;;;;10.57;9.45;;;12.10;99.90;;;;;;5008161;28;20115;-81
2022/10/01 01:50:14;;;;;;;11.48;10.10;;;12.10;99.90;;;;;;5008771;28;20053;-81
2022/10/01 01:52:40;;;;;;;11.13;9.52;;;12.10;99.90;;;;;;5010159;28;20442;-81
2022/10/01 01:55:07;;;;;;;11.52;9.88;;;12.10;99.90;;;;;;5008747;28;20037;-81
2022/10/01 01:57:38;;;;;;;12.80;10.07;;;12.00;99.90;;;;;;5007951;28;20065;-81
2022/10/01 02:00:04;;;;;;;11.05;9.95;;;12.00;99.90;;;;;;5004388;28;20626;-81
2022/10/01 02:02:34;;;;;;;13.05;10.40;;;12.00;99.90;;;;;;5022441;28;20041;-81
2022/10/01 02:05:06;;;;;;;11.70;10.50;;;12.00;99.90;;;;;;5024398;28;20037;-80
2022/10/01 02:08:02;;;;;;;11.07;9.73;;;12.00;99.90;;;;;;5025287;28;20046;-83
2022/10/01 02:10:30;;;;;;;11.55;10.10;;;12.00;99.90;;;;;;5027110;28;20080;-82
2022/10/01 02:13:21;;;;;;;11.10;9.88;;;12.00;99.90;;;;;;5028842;28;20096;-82
2022/10/01 02:15:54;;;;;;;11.65;10.52;;;12.00;99.90;;;;;;5009850;28;20061;-82
2022/10/01 02:18:29;;;;;;;11.15;9.95;;;12.00;99.90;;;;;;5026961;28;20084;-83
2022/10/01 02:21:14;;;;;;;11.88;10.68;;;12.00;99.90;;;;;;5025414;28;20061;-83
2022/10/01 02:23:47;;;;;;;11.73;10.52;;;12.00;99.90;;;;;;5016876;28;20050;-82
2022/10/01 02:26:18;;;;;;;12.13;10.55;;;12.00;99.90;;;;;;5001774;28;20065;-83
2022/10/01 02:28:46;;;;;;;11.75;10.60;;;12.00;99.90;;;;;;5008892;28;20128;-82
2022/10/01 02:31:14;;;;;;;12.77;11.48;;;11.90;99.90;;;;;;5022452;28;20529;-81
2022/10/01 02:33:42;;;;;;;12.65;11.35;;;11.90;99.90;;;;;;5028309;28;20484;-82
2022/10/01 02:36:12;;;;;;;13.18;11.82;;;11.90;99.90;;;;;;5009172;28;20084;-82
2022/10/01 02:38:40;;;;;;;12.55;11.45;;;11.90;99.90;;;;;;5027464;28;20524;-81
2022/10/01 02:41:10;;;;;;;12.90;11.60;;;11.90;99.90;;;;;;5026584;28;20038;-82
2022/10/01 02:43:59;;;;;;;12.05;10.77;;;11.90;99.90;;;;;;5028923;28;20436;-82
2022/10/01 02:46:34;;;;;;;13.23;11.50;;;11.90;99.90;;;;;;5026325;28;20073;-83
2022/10/01 02:49:01;;;;;;;12.68;10.77;;;11.80;99.90;;;;;;5005520;28;20525;-82
2022/10/01 02:51:50;;;;;;;13.25;10.98;;;11.80;99.90;;;;;;5003838;28;20416;-82
2022/10/01 02:54:44;;;;;;;10.75;9.75;;;11.90;99.90;;;;;;5019808;28;20447;-82
2022/10/01 02:57:27;;;;;;;10.77;9.77;;;11.90;99.90;;;;;;5006938;28;20048;-82
2022/10/01 02:59:58;;;;;;;10.77;9.77;;;11.90;99.90;;;;;;5018865;28;20045;-81
2022/10/01 03:02:26;;;;;;;10.07;9.07;;;11.80;99.90;;;;;;5001532;28;20037;-81
2022/10/01 03:04:53;;;;;;;10.25;8.65;;;11.90;99.90;;;;;;5017554;28;20485;-81
2022/10/01 03:07:18;;;;;;;9.82;8.82;;;11.90;99.90;;;;;;5003814;28;20092;-82
2022/10/01 03:09:44;;;;;;;10.27;9.20;;;11.90;99.90;;;;;;5004361;28;20410;-81
2022/10/01 03:12:10;;;;;;;8.80;7.70;;;11.90;99.90;;;;;;5004080;28;20057;-82
2022/10/01 03:14:38;;;;;;;7.75;6.95;;;11.90;99.90;;;;;;5024891;28;20037;-82
2022/10/01 03:17:07;;;;;;;8.18;7.47;;;11.90;99.90;;;;;;5023859;28;20511;-81
2022/10/01 03:19:33;;;;;;;8.15;7.30;;;11.90;99.90;;;;;;5002117;28;20645;-82
2022/10/01 03:21:58;;;;;;;7.05;6.35;;;11.90;99.90;;;;;;5016149;28;20048;-81
2022/10/01 03:24:24;;;;;;;8.02;7.22;;;11.90;99.90;;;;;;5020119;28;20708;-81
2022/10/01 03:26:50;;;;;;;7.63;6.82;;;12.00;99.90;;;;;;5003472;28;20057;-82
2022/10/01 03:29:16;;;;;;;9.05;6.45;;;11.90;99.90;;;;;;5002904;28;20055;-82
2022/10/01 03:31:41;;;;;;;6.60;5.90;;;11.90;99.90;;;;;;5002867;28;20038;-82
2022/10/01 03:34:07;;;;;;;6.93;6.22;;;11.90;99.90;;;;;;5021731;28;20112;-82
2022/10/01 03:36:33;;;;;;;6.43;5.80;;;11.90;99.90;;;;;;5020712;28;20045;-82
2022/10/01 03:38:59;;;;;;;9.50;5.00;;;12.00;99.90;;;;;;5026650;28;20081;-82
2022/10/01 03:41:24;;;;;;;5.10;4.50;;;11.90;99.90;;;;;;5022231;28;20044;-82
2022/10/01 03:43:50;;;;;;;5.20;4.70;;;11.90;99.90;;;;;;5019807;28;20052;-81
2022/10/01 03:46:16;;;;;;;5.97;4.75;;;11.90;99.90;;;;;;5019282;28;20053;-82
2022/10/01 03:48:42;;;;;;;5.65;4.70;;;11.90;99.90;;;;;;5022579;28;20091;-82
2022/10/01 03:51:07;;;;;;;5.10;4.60;;;11.90;99.90;;;;;;5019697;28;20077;-82
2022/10/01 03:53:33;;;;;;;6.70;4.68;;;11.90;99.90;;;;;;5018662;28;20036;-82
2022/10/01 03:55:59;;;;;;;5.57;4.30;;;11.90;99.90;;;;;;5020986;28;20095;-81
2022/10/01 03:58:25;;;;;;;4.35;3.95;;;11.90;99.90;;;;;;5025824;28;20404;-82
2022/10/01 04:00:53;;;;;;;4.00;3.55;;;11.90;99.90;;;;;;5019128;28;20179;-82
2022/10/01 04:03:18;;;;;;;;;;;12.00;99.90;;;;;;5025988;28;20065;-82
2022/10/01 04:05:45;;;;;;;5.53;4.57;;;11.90;99.90;;;;;;5025787;28;19975;-82
2022/10/01 04:08:11;;;;;;;5.05;4.55;;;11.90;99.90;;;;;;5026676;28;20068;-82
2022/10/01 04:10:37;;;;;;;5.00;4.50;;;12.00;99.90;;;;;;5003229;28;20037;-82
2022/10/01 04:13:04;;;;;;;5.10;4.60;;;12.00;99.90;;;;;;5001588;28;20045;-82
2022/10/01 04:15:31;;;;;;;7.00;4.73;;;11.90;99.90;;;;;;5002942;28;20057;-82
2022/10/01 04:17:57;;;;;;;7.78;4.60;;;11.90;99.90;;;;;;4999691;28;20049;-82
2022/10/01 04:20:24;;;;;;;5.15;4.68;;;11.90;99.90;;;;;;5023775;28;20079;-82
2022/10/01 04:22:49;;;;;;;5.63;4.40;;;11.90;99.90;;;;;;5005557;28;20052;-82
2022/10/01 04:25:15;;;;;;;5.57;5.07;;;11.80;99.90;;;;;;5020919;28;20043;-83
2022/10/01 04:27:53;;;;;;;5.40;4.90;;;11.90;99.90;;;;;;5023976;28;20731;-82
2022/10/01 04:30:20;;;;;;;6.47;5.40;;;12.00;99.90;;;;;;5020764;28;20551;-82
2022/10/01 04:32:45;;;;;;;4.47;4.07;;;12.00;99.90;;;;;;5020381;28;20563;-82
2022/10/01 04:35:11;;;;;;;5.28;4.70;;;11.90;99.90;;;;;;5021084;28;20045;-82
2022/10/01 04:37:37;;;;;;;4.75;4.22;;;11.90;99.90;;;;;;5025380;28;20706;-82
2022/10/01 04:40:03;;;;;;;4.35;3.95;;;11.90;99.90;;;;;;5006850;28;20126;-82
2022/10/01 04:42:29;;;;;;;4.28;3.88;;;11.90;99.90;;;;;;5022235;28;20765;-82
2022/10/01 04:44:56;;;;;;;4.22;3.80;;;11.90;99.90;;;;;;5026786;28;20057;-82
2022/10/01 04:47:22;;;;;;;3.67;3.38;;;11.90;99.90;;;;;;5027084;28;20053;-82
2022/10/01 04:49:48;;;;;;;3.97;3.58;;;11.90;99.90;;;;;;5020711;28;20042;-82
2022/10/01 04:52:13;;;;;;;3.67;3.38;;;11.90;99.90;;;;;;5023794;28;20044;-82
2022/10/01 04:54:39;;;;;;;4.13;3.20;;;11.90;99.90;;;;;;5001562;28;20488;-82
2022/10/01 04:57:05;;;;;;;3.85;3.45;;;12.00;99.90;;;;;;5023306;28;20065;-82
2022/10/01 04:59:30;;;;;;;3.45;3.15;;;11.90;99.90;;;;;;5024169;28;20046;-82
2022/10/01 05:01:56;;;;;;;3.30;3.00;;;11.90;99.90;;;;;;5023812;28;20052;-81
2022/10/01 05:04:22;;;;;;;3.20;2.90;;;12.00;99.90;;;;;;5022444;28;20037;-81
2022/10/01 05:06:47;;;;;;;3.30;3.00;;;12.00;99.90;;;;;;5021740;28;20161;-81
2022/10/01 05:09:13;;;;;;;3.20;2.90;;;12.00;99.90;;;;;;5005300;28;20044;-81
2022/10/01 05:11:39;;;;;;;3.17;2.88;;;12.00;99.90;;;;;;5026743;28;20091;-81
2022/10/01 05:14:04;;;;;;;2.97;2.78;;;12.00;99.90;;;;;;5026045;28;20128;-83
2022/10/01 05:16:30;;;;;;;4.32;3.30;;;12.00;99.90;;;;;;5032186;28;20045;-83
2022/10/01 05:18:57;;;;;;;3.47;3.17;;;12.00;99.90;;;;;;5012379;28;20049;-82
2022/10/01 05:21:22;;;;;;;3.50;3.07;;;12.00;99.90;;;;;;5030771;28;20049;-82
2022/10/01 05:23:48;;;;;;;3.55;3.25;;;12.00;99.90;;;;;;5024723;28;20037;-82
2022/10/01 05:26:13;;;;;;;4.28;3.22;;;12.00;99.90;;;;;;5006735;28;20396;-82
2022/10/01 05:28:43;;;;;;;3.97;3.67;;;12.00;99.90;;;;;;5006574;28;20065;-83
2022/10/01 05:31:10;;;;;;;4.38;3.95;;;12.00;99.90;;;;;;5022307;28;20049;-83
2022/10/01 05:33:36;;;;;;;4.25;3.85;;;12.00;99.90;;;;;;5005500;28;20492;-83
2022/10/01 05:36:05;;;;;;;4.10;3.80;;;12.00;99.90;;;;;;5022659;28;20049;-82
2022/10/01 05:38:35;;;;;;;4.72;4.10;;;12.00;99.90;;;;;;5007106;28;20045;-82
2022/10/01 05:41:00;;;;;;;4.07;3.40;;;12.00;99.90;;;;;;5021640;28;20041;-81
2022/10/01 05:43:26;;;;;;;11.05;8.68;;;12.10;99.90;;;;;;5024901;28;20073;-82
2022/10/01 05:45:51;;;;;;;10.85;9.25;;;12.10;99.90;;;;;;5023898;28;20045;-82
2022/10/01 05:48:17;;;;;;;9.68;6.53;;;12.10;99.90;;;;;;5027434;28;20521;-82
2022/10/01 05:50:43;;;;;;;19.42;13.27;;;12.10;99.90;;;;;;5028054;28;20049;-82
2022/10/01 05:53:10;;;;;;;5.22;4.10;;;12.10;99.90;;;;;;5028889;28;20515;-82
2022/10/01 05:55:36;;;;;;;13.45;10.75;;;12.10;99.90;;;;;;5011901;28;20049;-82
2022/10/01 05:58:10;;;;;;;4.40;4.00;;;12.10;99.90;;;;;;5028398;28;20507;-83
2022/10/01 06:00:37;;;;;;;8.82;7.93;;;12.10;99.90;;;;;;5004661;28;20489;-82
2022/10/01 06:03:03;;;;;;;;;;;12.20;99.90;;;;;;5024114;28;20566;-82
2022/10/01 06:05:31;;;;;;;4.90;3.90;;;12.10;99.90;;;;;;5025241;28;19925;-81
2022/10/01 06:07:56;;;;;;;;;;;12.10;99.90;;;;;;5010606;28;20091;-82
2022/10/01 06:10:23;;;;;;;5.03;4.10;;;12.10;99.90;;;;;;5005663;28;20646;-82
2022/10/01 06:12:49;;;;;;;4.43;4.03;;;12.20;99.90;;;;;;5012560;28;20061;-81
2022/10/01 06:15:17;;;;;;;4.97;4.03;;;12.20;99.90;;;;;;4997865;28;20052;-80
2022/10/01 06:17:44;;;;;;;;;;;12.20;99.90;;;;;;5029145;28;20120;-80
2022/10/01 06:20:19;;;;;;;4.97;4.47;;;12.20;99.90;;;;;;5004066;28;19935;-80
2022/10/01 06:22:53;;;;;;;5.32;4.93;;;12.20;99.90;;;;;;5002657;28;20049;-81
2022/10/01 06:25:19;;;;;;;5.60;4.90;;;12.30;99.90;;;;;;5003025;28;20101;-79
2022/10/01 06:27:55;;;;;;;5.28;4.75;;;12.30;99.90;;;;;;5005723;28;20050;-81
2022/10/01 06:30:25;;;;;;;7.70;5.30;;;12.30;99.90;;;;;;5019000;28;20400;-81
2022/10/01 06:33:01;;;;;;;6.35;5.15;;;12.30;99.90;;;;;;5025933;28;20068;-77
2022/10/01 06:35:27;;;;;;;5.90;5.40;;;12.40;99.90;;;;;;5021773;28;20508;-77
2022/10/01 06:37:54;;;;;;;6.55;5.95;;;12.30;99.90;;;;;;5024186;28;20048;-77
2022/10/01 06:40:20;;;;;;;6.13;5.53;;;12.40;99.90;;;;;;5022858;28;20511;-77
2022/10/01 06:42:47;;;;;;;6.78;5.80;;;12.40;99.90;;;;;;5026381;28;20045;-77
2022/10/01 06:45:17;;;;;;;6.22;5.63;;;12.50;99.90;;;;;;5007324;28;20057;-76
2022/10/01 06:47:44;;;;;;;7.57;5.85;;;12.40;99.90;;;;;;5023015;28;20441;-76
2022/10/01 06:50:13;;;;;;;;;;;12.50;99.90;;;;;;5006291;28;20074;-76
2022/10/01 06:52:48;;;;;;;8.10;6.03;;;12.50;99.90;;;;;;4998551;28;19956;-75
2022/10/01 06:55:22;;;;;;;8.23;5.97;;;12.50;99.90;;;;;;5023182;28;20499;-76
2022/10/01 06:57:57;;;;;;;6.90;5.80;;;12.50;99.90;;;;;;5005660;28;20056;-75
2022/10/01 07:00:27;;;;;;;7.13;6.28;;;12.60;99.90;;;;;;5014973;28;20046;-75
2022/10/01 07:02:56;;;;;;;6.78;6.00;;;12.60;99.90;;;;;;5010190;28;20124;-76
2022/10/01 07:05:23;;;;;;;7.80;7.00;;;12.60;99.90;;;;;;5023156;28;20041;-76
2022/10/01 07:07:49;;;;;;;6.95;6.25;;;12.70;99.90;;;;;;5028461;28;20041;-76
2022/10/01 07:10:19;;;;;;;7.65;6.75;;;12.60;99.90;;;;;;5003973;28;21140;-75
2022/10/01 07:12:49;;;;;;;7.68;6.53;;;12.70;99.90;;;;;;5024847;28;20499;-75
2022/10/01 07:15:18;;;;;;;9.18;7.38;;;12.70;99.90;;;;;;5007697;28;20119;-76
2022/10/01 07:17:45;;;;;;;8.38;7.45;;;12.80;99.90;;;;;;5026831;28;20448;-76
2022/10/01 07:20:13;;;;;;;8.75;7.85;;;12.80;99.90;;;;;;5021819;28;20053;-76
2022/10/01 07:22:39;;;;;;;11.38;8.02;;;12.80;99.90;;;;;;5027059;28;20041;-76
2022/10/01 07:25:06;;;;;;;8.75;7.85;;;12.80;99.90;;;;;;5023306;28;20045;-75
2022/10/01 07:27:31;;;;;;;10.77;7.93;;;12.90;99.90;;;;;;5025562;28;20144;-79
2022/10/01 07:29:57;;;;;;;10.25;8.10;;;12.90;99.90;;;;;;5003258;28;20120;-79
2022/10/01 07:32:24;;;;;;;9.65;8.15;;;12.90;99.90;;;;;;5017098;28;20042;-83
2022/10/01 07:34:50;;;;;;;9.43;8.43;;;12.90;99.90;;;;;;5002683;28;20049;-79
2022/10/01 07:37:16;;;;;;;9.82;8.82;;;12.90;99.90;;;;;;5020138;28;20050;-81
2022/10/01 07:39:42;;;;;;;10.32;8.73;;;12.90;99.90;;;;;;5022757;28;20139;-81
2022/10/01 07:42:08;;;;;;;11.52;9.00;;;13.00;99.90;;;;;;5024677;28;20042;-80
2022/10/01 07:44:34;;;;;;;11.68;8.80;;;13.10;99.90;;;;;;5008229;28;20057;-83
2022/10/01 07:46:59;;;;;;;9.60;8.63;;;13.10;99.90;;;;;;5028442;28;20053;-87
2022/10/01 07:49:26;;;;;;;13.15;9.10;;;13.20;99.90;;;;;;5028559;28;20033;-81
2022/10/01 07:51:53;;;;;;;14.93;8.77;;;13.20;99.90;;;;;;5024230;28;20045;-81
2022/10/01 07:54:20;;;;;;;10.00;8.65;;;13.20;99.90;;;;;;5025168;28;20041;-82
2022/10/01 07:56:51;;;;;;;11.75;9.30;;;13.30;99.90;;;;;;5003809;28;20080;-78
2022/10/01 07:59:17;;;;;;;12.60;9.65;;;13.40;99.90;;;;;;5027823;28;20460;-77
2022/10/01 08:01:43;;;;;;;13.35;9.82;;;13.40;99.90;;;;;;5020295;28;20043;-80
2022/10/01 08:06:53;;;;;;;14.68;10.13;;;13.50;99.90;;;;;;5024432;28;20096;-81
2022/10/01 08:09:19;;;;;;;15.88;10.27;;;13.60;99.90;;;;;;5009345;28;20082;-83
2022/10/01 08:11:47;;;;;;;12.20;9.40;;;13.70;99.90;;;;;;5013835;28;20042;-76
2022/10/01 08:14:13;;;;;;;14.02;9.30;;;13.70;99.90;;;;;;5008782;28;20120;-78
2022/10/01 08:16:39;;;;;;;12.25;7.70;;;13.70;99.90;;;;;;5004535;28;20052;-76
2022/10/01 08:19:08;;;;;;;12.52;7.20;;;13.80;99.90;;;;;;5027505;28;20038;-81
2022/10/01 08:21:34;;;;;;;13.82;8.00;;;13.80;99.90;;;;;;5006798;28;20037;-82
2022/10/01 08:24:04;;;;;;;12.65;7.47;;;13.90;99.90;;;;;;5025079;28;20055;-76
2022/10/01 08:26:31;;;;;;;14.55;7.57;;;13.90;99.90;;;;;;5027179;28;20123;-78
2022/10/01 08:28:57;;;;;;;11.57;6.50;;;14.10;99.90;;;;;;5023081;28;20115;-80
2022/10/01 08:31:22;;;;;;;15.50;6.47;;;14.10;99.90;;;;;;5025461;28;20427;-79
2022/10/01 08:33:49;;;;;;;13.13;6.00;;;14.20;99.90;;;;;;5028032;28;20033;-80
2022/10/01 08:36:15;;;;;;;12.40;5.65;;;14.30;99.90;;;;;;5026617;28;20120;-81
2022/10/01 08:38:45;;;;;;;10.35;4.60;;;14.40;99.90;;;;;;5006975;28;20369;-80
2022/10/01 08:41:25;;;;;;;11.43;4.80;;;14.50;99.90;;;;;;5022935;28;20054;-83
2022/10/01 08:43:51;;;;;;;10.88;4.75;;;14.60;99.90;;;;;;5019865;28;20057;-79
2022/10/01 08:46:20;;;;;;;15.32;5.03;;;14.60;99.90;;;;;;5019664;28;20128;-79
2022/10/01 08:49:04;;;;;;;11.65;5.00;;;14.70;99.90;;;;;;5002305;28;20049;-81
2022/10/01 08:51:55;;;;;;;11.90;4.40;;;14.70;99.90;;;;;;5008280;28;20045;-85
2022/10/01 08:54:31;;;;;;;14.90;4.70;;;14.80;99.90;;;;;;5026962;28;20041;-84
2022/10/01 08:57:00;;;;;;;8.75;4.68;;;14.90;99.90;;;;;;5007863;28;20041;-84
2022/10/01 08:59:44;;;;;;;9.18;4.20;;;15.00;99.90;;;;;;5005819;28;20025;-84
2022/10/01 09:02:24;;;;;;;11.65;4.55;;;15.00;99.90;;;;;;5023323;28;20485;-85
2022/10/01 09:04:54;;;;;;;13.48;5.10;;;15.00;99.90;;;;;;5020408;28;20561;-83
2022/10/01 09:07:35;;;;;;;10.75;4.65;;;15.00;99.90;;;;;;5017408;28;20052;-77
2022/10/01 09:10:24;;;;;;;12.77;4.53;;;15.10;99.90;;;;;;5030075;28;20042;-81
2022/10/01 09:13:19;;;;;;;11.48;3.92;;;15.20;99.90;;;;;;5003891;28;20129;-80
2022/10/01 09:15:55;;;;;;;12.38;4.30;;;15.30;99.90;;;;;;5024702;28;20041;-80
2022/10/01 09:18:48;;;;;;;13.32;4.10;;;15.30;99.90;;;;;;5025310;28;20049;-80
2022/10/01 09:21:21;;;;;;;9.68;3.53;;;15.40;99.90;;;;;;5013392;28;20484;-79
2022/10/01 09:24:14;;;;;;;9.43;3.40;;;15.50;99.90;;;;;;5026846;28;20720;-80
2022/10/01 09:26:45;;;;;;;12.40;3.40;;;15.60;99.90;;;;;;5026303;28;20735;-80
2022/10/01 09:29:20;;;;;;;10.75;3.63;;;15.70;99.90;;;;;;5026436;28;20033;-78
2022/10/01 09:31:50;;;;;;;8.77;3.00;;;15.80;99.90;;;;;;5030061;28;20060;-84
2022/10/01 09:34:29;;;;;;;8.73;2.67;;;15.90;99.90;;;;;;5028947;28;20046;-83
2022/10/01 09:37:20;;;;;;;8.60;2.65;;;15.90;99.90;;;;;;5029465;28;20120;-78
2022/10/01 09:39:56;;;;;;;8.52;2.20;;;15.90;99.90;;;;;;5011102;28;20060;-79
2022/10/01 09:42:26;;;;;;;9.18;2.28;;;15.90;99.90;;;;;;5024944;28;20055;-87
2022/10/01 09:44:53;;;;;;;10.15;2.53;;;15.90;99.90;;;;;;5024545;28;20612;-78
2022/10/01 09:47:21;;;;;;;9.43;2.47;;;16.00;99.90;;;;;;5019760;28;20147;-84
2022/10/01 09:49:48;;;;;;;8.45;2.42;;;16.00;99.90;;;;;;5009339;28;20052;-80
2022/10/01 09:52:33;;;;;;;8.20;1.98;;;16.20;99.90;;;;;;5027192;28;20045;-80
2022/10/01 09:55:10;;;;;;;7.10;1.60;;;16.30;99.90;;;;;;5013241;28;20041;-80
2022/10/01 09:58:01;;;;;;;9.38;2.10;;;16.30;99.90;;;;;;5022929;28;20033;-82
2022/10/01 10:00:29;;;;;;;7.75;2.28;;;16.30;99.90;;;;;;5017558;28;20045;-81
2022/10/01 10:02:55;;;;;;;10.98;1.90;;;16.30;99.90;;;;;;5038521;28;20046;-83
2022/10/01 10:05:24;;;;;;;8.10;1.63;;;16.20;99.90;;;;;;5015923;28;20045;-83
2022/10/01 10:08:04;;;;;;;9.40;1.90;;;16.30;99.90;;;;;;5028715;28;20041;-79
2022/10/01 10:10:38;;;;;;;6.00;1.60;;;16.30;99.90;;;;;;5008932;28;20045;-82
2022/10/01 10:13:26;;;;;;;5.68;1.80;;;16.30;99.90;;;;;;5004476;28;20081;-82
2022/10/01 10:15:56;;;;;;;5.78;1.52;;;16.40;99.90;;;;;;5013467;28;20054;-80
2022/10/01 10:18:27;;;;;;;7.97;1.77;;;16.40;99.90;;;;;;5012580;28;20120;-85
2022/10/01 10:20:54;;;;;;;7.82;2.00;;;16.50;99.90;;;;;;5028882;28;20455;-81
2022/10/01 10:23:28;;;;;;;6.95;1.90;;;16.60;99.90;;;;;;5022149;28;20096;-80
2022/10/01 10:26:02;;;;;;;7.35;1.85;;;16.80;99.90;;;;;;5023106;28;20045;-75
2022/10/01 10:28:38;;;;;;;8.43;1.58;;;16.80;99.90;;;;;;5007216;28;20045;-81
2022/10/01 10:31:17;;;;;;;5.68;1.42;;;16.90;99.90;;;;;;5025778;28;20033;-79
2022/10/01 10:34:02;;;;;;;8.23;1.85;;;16.90;99.90;;;;;;5006066;28;20037;-82
2022/10/01 10:36:31;;;;;;;8.02;1.95;;;17.00;99.90;;;;;;5025168;28;20037;-79
2022/10/01 10:38:58;;;;;;;8.90;1.50;;;16.90;99.90;;;;;;5028364;28;20048;-85
2022/10/01 10:41:26;;;;;;;7.60;1.43;;;16.90;99.90;;;;;;5008231;28;20507;-78
2022/10/01 10:44:13;;;;;;;5.93;1.38;;;16.80;99.90;;;;;;4998084;28;20057;-76
2022/10/01 10:46:39;;;;;;;5.60;1.50;;;16.70;99.90;;;;;;5021706;28;20057;-83
2022/10/01 10:49:30;;;;;;;6.65;2.13;;;16.60;99.90;;;;;;5026589;28;20061;-81
2022/10/01 10:52:00;;;;;;;7.70;1.90;;;16.60;99.90;;;;;;5027357;28;20084;-80
2022/10/01 10:54:40;;;;;;;10.85;2.03;;;16.50;99.90;;;;;;5028377;28;20037;-76
2022/10/01 10:57:28;;;;;;;9.05;1.80;;;16.50;99.90;;;;;;5024919;28;20030;-76
2022/10/01 10:59:55;;;;;;;9.02;1.92;;;16.40;99.90;;;;;;5005571;28;20048;-73
2022/10/01 11:02:24;;;;;;;7.07;2.25;;;16.20;99.90;;;;;;5022261;28;20045;-78
2022/10/01 11:04:51;;;;;;;8.07;2.05;;;16.00;99.90;;;;;;5024980;28;20041;-79
2022/10/01 11:07:23;;;;;;;13.93;2.60;;;15.80;99.90;;;;;;5008816;28;20068;-82
2022/10/01 11:10:13;;;;;;;14.48;3.08;;;15.60;99.90;;;;;;5008451;28;20095;-78
2022/10/01 11:13:05;;;;;;;9.20;2.25;;;15.50;99.90;;;;;;5014741;28;20037;-83
2022/10/01 11:15:56;;;;;;;7.65;1.60;;;15.20;99.90;;;;;;4997831;28;20219;-82
2022/10/01 11:18:47;;;;;;;5.82;1.45;;;15.00;99.90;;;;;;5006521;28;20042;-84
2022/10/01 11:21:40;;;;;;;6.20;1.30;;;14.80;99.90;;;;;;5014780;28;20080;-83
2022/10/01 11:24:39;;;;;;;6.15;1.50;;;14.70;99.90;;;;;;5027766;28;20037;-84
2022/10/01 11:27:14;;;;;;;6.70;1.73;;;14.60;99.90;;;;;;5005494;28;20052;-84
2022/10/01 11:29:52;;;;;;;4.13;1.10;;;14.60;99.90;;;;;;5026296;28;20046;-83
2022/10/01 11:32:44;;;;;;;5.82;1.30;;;14.50;99.90;;;;;;5023984;28;20095;-84
2022/10/01 11:35:28;;;;;;;5.63;1.40;;;14.40;99.90;;;;;;5007577;28;20053;-84
2022/10/01 11:37:59;;;;;;;6.55;1.50;;;14.30;99.90;;;;;;5024798;28;20464;-82
2022/10/01 11:40:54;;;;;;;5.50;1.20;;;14.30;99.90;;;;;;5027482;28;20041;-82
2022/10/01 11:43:30;;;;;;;5.50;1.05;;;14.50;99.90;;;;;;5019596;28;20493;-81
2022/10/01 11:46:02;;;;;;;6.75;1.52;;;14.50;99.90;;;;;;5026434;28;20053;-80
2022/10/01 11:48:44;;;;;;;4.68;1.30;;;14.70;99.90;;;;;;5021195;28;20484;-84
2022/10/01 11:51:38;;;;;;;;;;;;;;;;;;;;;
2022/10/01 11:54:27;;;;;;;4.97;1.20;;;14.70;99.90;;;;;;5019700;28;20056;-84
2022/10/01 11:59:50;;;;;;;4.40;1.48;;;14.60;99.90;;;;;;5022071;28;20057;-82
2022/10/01 12:02:41;;;;;;;5.22;1.23;;;14.50;99.90;;;;;;5008871;28;20041;-82
2022/10/01 12:05:15;;;;;;;5.25;1.20;;;14.50;99.90;;;;;;5025596;28;20073;-82
2022/10/01 12:08:06;;;;;;;6.53;1.42;;;14.40;99.90;;;;;;5019855;28;20057;-81
2022/10/01 12:10:54;;;;;;;7.57;1.83;;;14.50;99.90;;;;;;5008133;28;20068;-80
2022/10/01 12:13:39;;;;;;;5.45;1.30;;;14.50;99.90;;;;;;5003045;28;21002;-82
2022/10/01 12:16:16;;;;;;;5.07;1.40;;;14.50;99.90;;;;;;5014034;28;20116;-82
2022/10/01 12:18:54;;;;;;;8.85;2.00;;;14.60;99.90;;;;;;5019009;28;20057;-84
2022/10/01 12:21:24;;;;;;;7.32;1.80;;;14.60;99.90;;;;;;5025116;28;20090;-84
2022/10/01 12:24:03;;;;;;;6.75;1.60;;;14.70;99.90;;;;;;5022145;28;20126;-81
2022/10/01 12:26:45;;;;;;;7.80;1.88;;;14.80;99.90;;;;;;5022832;28;20110;-81
2022/10/01 12:29:13;;;;;;;8.52;2.53;;;14.90;99.90;;;;;;5005728;28;20500;-77
2022/10/01 12:31:48;;;;;;;8.73;2.22;;;15.10;99.90;;;;;;5024283;28;20034;-73
2022/10/01 12:34:40;;;;;;;8.55;1.92;;;15.20;99.90;;;;;;5023830;28;20079;-77
2022/10/01 12:37:30;;;;;;;10.95;2.35;;;15.30;99.90;;;;;;4976751;28;20061;-78
2022/10/01 12:40:23;;;;;;;7.43;2.00;;;15.50;99.90;;;;;;4990499;28;20125;-72
2022/10/01 12:43:24;;;;;;;12.70;2.10;;;15.60;99.90;;;;;;5011984;28;20617;-76
2022/10/01 12:46:09;;;;;;;13.43;2.60;;;15.70;99.90;;;;;;5021500;28;20054;-76
2022/10/01 12:49:02;;;;;;;12.60;2.33;;;15.70;99.90;;;;;;5024333;28;20054;-76
2022/10/01 12:51:44;;;;;;;12.50;2.22;;;15.70;99.90;;;;;;5017441;28;20426;-76
2022/10/01 12:54:49;;;;;;;13.25;3.13;;;15.70;99.90;;;;;;5024088;28;20045;-78
2022/10/01 12:57:21;;;;;;;11.10;2.28;;;15.70;99.90;;;;;;4970635;28;20065;-75
2022/10/01 13:00:00;;;;;;;12.88;2.60;;;15.60;99.90;;;;;;5027060;28;20049;-78
2022/10/01 13:02:43;;;;;;;10.70;2.47;;;15.70;99.90;;;;;;5023853;28;20048;-77
2022/10/01 13:05:51;;;;;;;9.55;2.10;;;15.70;99.90;;;;;;5025615;28;20128;-79
2022/10/01 13:08:16;;;;;;;10.95;2.28;;;15.90;99.90;;;;;;4999439;28;20499;-79
2022/10/01 13:10:52;;;;;;;7.35;1.90;;;15.90;99.90;;;;;;5025623;28;20049;-77
2022/10/01 13:13:32;;;;;;;9.23;1.88;;;15.90;99.90;;;;;;5017860;28;20046;-80
2022/10/01 13:16:01;;;;;;;12.52;2.53;;;15.90;99.90;;;;;;5014714;28;20046;-81
2022/10/01 13:18:45;;;;;;;7.18;1.80;;;15.90;99.90;;;;;;5029096;28;20049;-82